createdAt,value
2023-01-13T00:00:46.426Z,80.18
2023-01-13T00:03:12.978Z,81.33
2023-01-13T00:05:39.359Z,82.20
2023-01-13T00:08:06.296Z,80.41
2023-01-13T00:10:36.218Z,79.64
2023-01-13T00:13:05.117Z,80.13
2023-01-13T00:15:32.102Z,80.41
2023-01-13T00:17:58.765Z,81.33
2023-01-13T00:20:25.234Z,83.81
2023-01-13T00:22:51.611Z,83.39
2023-01-13T00:25:17.976Z,83.27
2023-01-13T00:27:44.422Z,83.17
2023-01-13T00:30:11.331Z,82.79
2023-01-13T00:32:38.108Z,82.65
2023-01-13T00:35:04.932Z,83.58
2023-01-13T00:37:31.364Z,83.25
2023-01-13T00:39:57.883Z,83.39
2023-01-13T00:42:42.668Z,81.90
2023-01-13T00:45:09.452Z,81.78
2023-01-13T00:47:35.914Z,81.23
2023-01-13T00:50:02.343Z,79.98
2023-01-13T00:52:28.746Z,78.74
2023-01-13T00:54:55.118Z,77.45
2023-01-13T00:57:21.512Z,75.79
2023-01-13T00:59:49.543Z,74.86
2023-01-13T01:02:16.253Z,74.25
2023-01-13T01:04:42.702Z,74.02
2023-01-13T01:07:09.094Z,74.79
2023-01-13T01:09:35.512Z,74.62
2023-01-13T01:12:01.964Z,75.73
2023-01-13T01:14:28.415Z,76.05
2023-01-13T01:16:54.836Z,76.47
2023-01-13T01:19:21.301Z,77.35
2023-01-13T01:21:47.669Z,77.63
2023-01-13T01:24:16.411Z,76.97
2023-01-13T01:26:42.808Z,77.62
2023-01-13T01:29:13.673Z,76.71
2023-01-13T01:31:40.125Z,78.16
2023-01-13T01:34:06.560Z,77.12
2023-01-13T01:36:34.807Z,76.69
2023-01-13T01:39:01.290Z,75.40
2023-01-13T01:41:30.317Z,75.19
2023-01-13T01:44:06.894Z,75.27
2023-01-13T01:46:42.742Z,75.53
2023-01-13T01:49:24.712Z,75.75
2023-01-13T01:52:07.795Z,75.82
2023-01-13T01:54:42.460Z,76.66
2023-01-13T01:57:13.891Z,78.24
2023-01-13T01:59:41.375Z,79.76
2023-01-13T02:02:08.675Z,80.95
2023-01-13T02:04:40.705Z,80.38
2023-01-13T02:07:07.355Z,79.73
2023-01-13T02:09:35.089Z,80.32
2023-01-13T02:12:20.127Z,81.24
2023-01-13T02:14:46.849Z,81.26
2023-01-13T02:17:26.013Z,81.13
2023-01-13T02:20:25.393Z,82.43
2023-01-13T02:23:29.744Z,83.82
2023-01-13T02:26:16.995Z,84.12
2023-01-13T02:29:29.435Z,83.90
2023-01-13T02:32:04.671Z,84.20
2023-01-13T02:34:41.816Z,84.95
2023-01-13T02:37:28.618Z,84.32
2023-01-13T02:40:02.737Z,84.81
2023-01-13T02:42:53.241Z,85.22
2023-01-13T02:45:26.751Z,85.74
2023-01-13T02:47:56.087Z,85.99
2023-01-13T02:50:28.996Z,85.69
2023-01-13T02:53:00.607Z,85.13
2023-01-13T02:55:33.933Z,86.45
2023-01-13T02:58:03.375Z,86.38
2023-01-13T03:00:30.927Z,86.64
2023-01-13T03:02:57.569Z,86.79
2023-01-13T03:05:25.143Z,86.68
2023-01-13T03:08:11.966Z,87.01
2023-01-13T03:10:56.539Z,86.75
2023-01-13T03:13:52.561Z,86.37
2023-01-13T03:16:38.323Z,86.99
2023-01-13T03:19:04.722Z,86.82
2023-01-13T03:21:31.088Z,86.95
2023-01-13T03:24:11.725Z,87.31
2023-01-13T03:27:12.371Z,86.85
2023-01-13T03:29:45.483Z,86.89
2023-01-13T03:32:52.821Z,86.80
2023-01-13T03:35:24.774Z,86.57
2023-01-13T03:38:00.299Z,86.71
2023-01-13T03:40:32.378Z,86.47
2023-01-13T03:43:24.228Z,86.45
2023-01-13T03:46:02.732Z,86.42
2023-01-13T03:48:32.568Z,86.24
2023-01-13T03:51:06.323Z,86.48
2023-01-13T03:53:40.012Z,86.52
2023-01-13T03:56:15.149Z,86.46
2023-01-13T03:58:45.660Z,86.10
2023-01-13T04:01:14.746Z,85.67
2023-01-13T04:03:53.988Z,85.66
2023-01-13T04:06:39.251Z,84.64
2023-01-13T04:09:15.431Z,85.27
2023-01-13T04:11:51.732Z,85.81
2023-01-13T04:14:21.139Z,86.02
2023-01-13T04:16:48.561Z,86.16
2023-01-13T04:19:15.019Z,85.81
2023-01-13T04:21:41.436Z,86.01
2023-01-13T04:24:08.887Z,85.78
2023-01-13T04:26:35.362Z,85.93
2023-01-13T04:29:01.852Z,86.33
2023-01-13T04:31:28.369Z,86.21
2023-01-13T04:33:54.810Z,86.25
2023-01-13T04:36:25.071Z,86.92
2023-01-13T04:38:51.563Z,87.13
2023-01-13T04:41:17.943Z,87.03
2023-01-13T04:43:44.316Z,87.11
2023-01-13T04:46:10.759Z,87.28
2023-01-13T04:48:37.213Z,87.34
2023-01-13T04:51:03.834Z,87.57
2023-01-13T04:53:30.279Z,87.73
2023-01-13T04:55:56.727Z,87.56
2023-01-13T04:58:23.200Z,87.79
2023-01-13T05:00:51.039Z,87.61
2023-01-13T05:03:18.574Z,87.70
2023-01-13T05:05:45.068Z,87.57
2023-01-13T05:08:11.450Z,87.49
2023-01-13T05:10:37.872Z,87.71
2023-01-13T05:13:23.050Z,87.33
2023-01-13T05:16:10.447Z,87.58
2023-01-13T05:18:37.677Z,87.50
2023-01-13T05:21:04.083Z,87.69
2023-01-13T05:23:49.137Z,87.92
2023-01-13T05:26:15.525Z,87.18
2023-01-13T05:28:41.947Z,87.71
2023-01-13T05:31:08.464Z,87.35
2023-01-13T05:33:36.022Z,87.09
2023-01-13T05:36:03.374Z,86.99
2023-01-13T05:38:29.836Z,86.43
2023-01-13T05:41:18.172Z,86.29
2023-01-13T05:43:44.778Z,85.90
2023-01-13T05:46:12.134Z,86.12
2023-01-13T05:48:40.670Z,86.01
2023-01-13T05:51:09.377Z,85.96
2023-01-13T05:53:36.217Z,85.84
2023-01-13T05:56:07.427Z,85.89
2023-01-13T05:58:34.272Z,85.78
2023-01-13T06:01:04.886Z,85.47
2023-01-13T06:03:31.474Z,85.63
2023-01-13T06:06:01.392Z,85.76
2023-01-13T06:08:28.166Z,86.00
2023-01-13T06:10:54.622Z,85.83
2023-01-13T06:13:21.213Z,86.00
2023-01-13T06:15:47.706Z,85.66
2023-01-13T06:18:14.129Z,85.85
2023-01-13T06:20:40.578Z,85.83
2023-01-13T06:23:10.603Z,86.17
2023-01-13T06:25:58.345Z,85.98
2023-01-13T06:28:24.887Z,86.26
2023-01-13T06:30:56.762Z,86.24
2023-01-13T06:33:30.054Z,86.43
2023-01-13T06:36:01.418Z,86.47
2023-01-13T06:38:30.144Z,86.74
2023-01-13T06:40:56.652Z,86.63
2023-01-13T06:43:23.148Z,86.77
2023-01-13T06:45:53.500Z,87.07
2023-01-13T06:48:32.782Z,86.94
2023-01-13T06:50:59.420Z,86.78
2023-01-13T06:53:25.949Z,86.88
2023-01-13T06:55:52.437Z,86.89
2023-01-13T06:58:18.855Z,86.95
2023-01-13T07:00:49.541Z,86.89
2023-01-13T07:03:16.782Z,86.65
2023-01-13T07:05:51.109Z,86.67
2023-01-13T07:08:17.743Z,86.36
2023-01-13T07:10:44.199Z,86.18
2023-01-13T07:13:29.339Z,85.69
2023-01-13T07:15:57.977Z,86.16
2023-01-13T07:18:27.255Z,85.98
2023-01-13T07:20:58.865Z,86.20
2023-01-13T07:23:27.585Z,86.49
2023-01-13T07:25:58.043Z,86.36
2023-01-13T07:28:25.983Z,86.89
2023-01-13T07:30:52.867Z,86.86
2023-01-13T07:33:19.726Z,87.51
2023-01-13T07:35:47.968Z,87.37
2023-01-13T07:38:15.362Z,87.38
2023-01-13T07:40:41.847Z,87.49
2023-01-13T07:43:30.727Z,87.66
2023-01-13T07:46:06.575Z,87.63
2023-01-13T07:48:34.392Z,87.74
2023-01-13T07:51:09.997Z,87.60
2023-01-13T07:53:36.690Z,87.63
2023-01-13T07:56:04.957Z,87.51
2023-01-13T07:58:33.271Z,87.42
2023-01-13T08:00:59.779Z,87.17
2023-01-13T08:03:27.251Z,87.21
2023-01-13T08:05:53.703Z,87.19
2023-01-13T08:08:20.208Z,86.63
2023-01-13T08:10:46.723Z,86.31
2023-01-13T08:13:22.393Z,86.05
2023-01-13T08:15:51.500Z,86.36
2023-01-13T08:18:21.205Z,85.90
2023-01-13T08:20:52.442Z,86.20
2023-01-13T08:23:23.054Z,86.00
2023-01-13T08:25:49.891Z,86.36
2023-01-13T08:28:17.487Z,86.18
2023-01-13T08:30:44.282Z,85.70
2023-01-13T08:33:12.681Z,86.01
2023-01-13T08:35:41.159Z,86.08
2023-01-13T08:38:08.921Z,85.62
2023-01-13T08:40:35.899Z,86.21
2023-01-13T08:43:03.023Z,86.97
2023-01-13T08:45:29.495Z,87.06
2023-01-13T08:47:55.876Z,86.89
2023-01-13T08:50:22.365Z,87.25
2023-01-13T08:52:48.810Z,86.85
2023-01-13T08:55:15.386Z,87.05
2023-01-13T08:57:41.788Z,86.73
2023-01-13T09:00:09.293Z,86.31
2023-01-13T09:02:35.821Z,86.39
2023-01-13T09:05:07.020Z,86.02
2023-01-13T09:07:35.630Z,84.37
2023-01-13T09:10:03.822Z,84.08
2023-01-13T09:12:48.979Z,83.93
2023-01-13T09:15:18.336Z,83.24
2023-01-13T09:17:45.326Z,82.13
2023-01-13T09:20:13.108Z,82.16
2023-01-13T09:22:40.617Z,82.35
2023-01-13T09:25:07.453Z,82.16
2023-01-13T09:27:33.936Z,82.09
2023-01-13T09:30:00.580Z,81.64
2023-01-13T09:32:27.021Z,80.65
2023-01-13T09:35:02.755Z,79.73
2023-01-13T09:37:31.808Z,80.73
2023-01-13T09:39:58.254Z,80.61
2023-01-13T09:43:17.212Z,80.07
2023-01-13T09:46:04.217Z,79.65
2023-01-13T09:48:51.705Z,80.56
2023-01-13T09:51:28.515Z,81.70
2023-01-13T09:54:02.942Z,81.43
2023-01-13T09:56:29.459Z,81.59
2023-01-13T09:58:55.893Z,82.34
2023-01-13T10:01:38.859Z,82.33
2023-01-13T10:04:11.156Z,82.77
2023-01-13T10:06:42.172Z,83.96
2023-01-13T10:09:18.428Z,84.60
2023-01-13T10:12:07.249Z,85.33
2023-01-13T10:14:51.606Z,84.16
2023-01-13T10:17:39.877Z,84.60
2023-01-13T10:20:22.346Z,84.55
2023-01-13T10:23:02.792Z,83.53
2023-01-13T10:26:04.372Z,83.85
2023-01-13T10:28:30.865Z,83.66
2023-01-13T10:30:58.558Z,83.94
2023-01-13T10:33:30.467Z,84.73
2023-01-13T10:36:02.634Z,84.49
2023-01-13T10:38:46.004Z,85.11
2023-01-13T10:41:15.428Z,85.34
2023-01-13T10:43:57.541Z,84.73
2023-01-13T10:46:24.194Z,84.30
2023-01-13T10:48:59.071Z,82.61
2023-01-13T10:51:44.176Z,83.92
2023-01-13T10:54:13.303Z,83.96
2023-01-13T10:56:42.393Z,83.83
2023-01-13T10:59:16.710Z,83.84
2023-01-13T11:01:59.634Z,83.41
2023-01-13T11:04:28.605Z,84.00
2023-01-13T11:06:56.007Z,84.26
2023-01-13T11:09:22.842Z,84.89
2023-01-13T11:11:55.496Z,85.04
2023-01-13T11:14:39.987Z,85.06
2023-01-13T11:17:25.853Z,85.69
2023-01-13T11:20:04.992Z,86.04
2023-01-13T11:22:40.497Z,85.42
2023-01-13T11:25:15.484Z,86.31
2023-01-13T11:27:55.661Z,85.87
2023-01-13T11:30:41.211Z,86.64
2023-01-13T11:33:17.192Z,86.72
2023-01-13T11:36:06.770Z,87.26
2023-01-13T11:38:50.444Z,87.39
2023-01-13T11:41:22.903Z,87.92
2023-01-13T11:44:06.238Z,87.69
2023-01-13T11:46:32.984Z,87.48
2023-01-13T11:48:59.932Z,87.43
2023-01-13T11:51:48.905Z,87.77
2023-01-13T11:54:42.992Z,87.32
2023-01-13T11:57:18.244Z,87.62
2023-01-13T11:59:58.678Z,87.20
2023-01-13T12:02:50.439Z,87.16
2023-01-13T12:05:29.262Z,86.87
2023-01-13T12:08:06.242Z,86.96
2023-01-13T12:10:33.575Z,86.95
2023-01-13T12:13:29.052Z,86.46
2023-01-13T12:16:11.347Z,87.02
2023-01-13T12:18:51.087Z,86.78
2023-01-13T12:21:22.927Z,86.44
2023-01-13T12:23:58.945Z,86.58
2023-01-13T12:26:25.783Z,86.84
2023-01-13T12:28:59.687Z,86.52
2023-01-13T12:31:27.830Z,86.23
2023-01-13T12:34:09.988Z,86.99
2023-01-13T12:36:45.196Z,86.47
2023-01-13T12:39:37.939Z,86.30
2023-01-13T12:42:53.636Z,85.60
2023-01-13T12:45:23.770Z,85.11
2023-01-13T12:47:50.382Z,85.80
2023-01-13T12:50:22.786Z,84.35
2023-01-13T12:52:50.873Z,84.71
2023-01-13T12:55:22.177Z,84.88
2023-01-13T12:58:02.511Z,84.40
2023-01-13T13:00:38.288Z,83.86
2023-01-13T13:03:09.246Z,84.17
2023-01-13T13:05:44.127Z,83.13
2023-01-13T13:08:25.455Z,83.47
2023-01-13T13:11:00.594Z,83.13
2023-01-13T13:13:56.189Z,82.87
2023-01-13T13:16:25.549Z,83.76
2023-01-13T13:19:22.900Z,83.12
2023-01-13T13:22:18.937Z,81.80
2023-01-13T13:24:51.506Z,80.82
2023-01-13T13:27:33.266Z,82.56
2023-01-13T13:30:03.621Z,80.86
2023-01-13T13:32:47.433Z,82.17
2023-01-13T13:35:27.676Z,81.89
2023-01-13T13:38:36.069Z,80.84
2023-01-13T13:41:53.552Z,81.26
2023-01-13T13:44:43.827Z,80.79
2023-01-13T13:47:10.837Z,81.71
2023-01-13T13:49:41.878Z,80.71
2023-01-13T13:52:11.569Z,80.31
2023-01-13T13:54:44.269Z,80.34
2023-01-13T13:57:23.241Z,81.08
2023-01-13T13:59:57.485Z,80.98
2023-01-13T14:02:29.465Z,81.39
2023-01-13T14:05:14.777Z,81.12
2023-01-13T14:07:47.695Z,81.07
2023-01-13T14:10:19.332Z,82.05
2023-01-13T14:12:45.904Z,81.59
2023-01-13T14:15:35.534Z,81.92
2023-01-13T14:18:04.898Z,81.26
2023-01-13T14:20:32.020Z,81.92
2023-01-13T14:23:01.552Z,82.53
2023-01-13T14:25:28.085Z,82.85
2023-01-13T14:27:57.265Z,82.82
2023-01-13T14:30:26.080Z,82.69
2023-01-13T14:32:53.576Z,83.06
2023-01-13T14:35:20.282Z,83.08
2023-01-13T14:37:48.996Z,83.20
2023-01-13T14:40:36.065Z,82.57
2023-01-13T14:43:09.334Z,82.84
2023-01-13T14:45:35.801Z,82.50
2023-01-13T14:48:08.294Z,83.50
2023-01-13T14:50:35.020Z,83.41
2023-01-13T14:53:01.955Z,83.42
2023-01-13T14:55:37.221Z,83.80
2023-01-13T14:58:22.103Z,83.56
2023-01-13T15:00:49.518Z,83.92
2023-01-13T15:03:18.029Z,83.24
2023-01-13T15:05:52.592Z,83.27
2023-01-13T15:08:27.763Z,82.34
2023-01-13T15:11:06.501Z,82.35
2023-01-13T15:13:49.708Z,82.89
2023-01-13T15:16:27.222Z,82.94
2023-01-13T15:18:55.257Z,82.94
2023-01-13T15:21:23.217Z,83.13
2023-01-13T15:23:49.904Z,82.76
2023-01-13T15:26:23.351Z,82.74
2023-01-13T15:28:51.478Z,83.07
2023-01-13T15:31:18.426Z,83.24
2023-01-13T15:33:44.921Z,83.41
2023-01-13T15:36:29.623Z,84.00
2023-01-13T15:38:57.037Z,83.59
2023-01-13T15:41:42.429Z,84.02
2023-01-13T15:44:31.640Z,84.22
2023-01-13T15:47:01.333Z,83.85
2023-01-13T15:49:35.135Z,83.73
2023-01-13T15:52:13.542Z,84.58
2023-01-13T15:54:39.960Z,84.84
2023-01-13T15:57:06.580Z,85.02
2023-01-13T15:59:33.861Z,85.44
2023-01-13T16:02:00.398Z,85.91
2023-01-13T16:04:26.859Z,85.23
2023-01-13T16:06:53.280Z,85.09
2023-01-13T16:09:19.679Z,85.64
2023-01-13T16:11:46.272Z,85.71
2023-01-13T16:14:12.725Z,85.88
2023-01-13T16:16:39.254Z,85.62
2023-01-13T16:19:05.699Z,86.12
2023-01-13T16:21:32.103Z,85.94
2023-01-13T16:23:58.502Z,86.18
2023-01-13T16:26:29.049Z,86.06
2023-01-13T16:28:57.332Z,85.88
2023-01-13T16:31:32.986Z,85.55
2023-01-13T16:34:01.694Z,85.68
2023-01-13T16:36:30.416Z,85.67
2023-01-13T16:38:57.223Z,86.23
2023-01-13T16:41:24.890Z,86.17
2023-01-13T16:43:52.204Z,86.38
2023-01-13T16:46:28.923Z,86.40
2023-01-13T16:49:01.131Z,86.26
2023-01-13T16:51:27.535Z,86.68
2023-01-13T16:53:53.979Z,86.38
2023-01-13T16:56:28.061Z,86.88
2023-01-13T16:58:57.222Z,86.59
2023-01-13T17:01:29.301Z,86.52
2023-01-13T17:03:56.726Z,85.34
2023-01-13T17:07:04.307Z,84.47
2023-01-13T17:09:30.924Z,82.58
2023-01-13T17:11:58.036Z,82.24
2023-01-13T17:14:25.253Z,82.06
2023-01-13T17:16:54.912Z,81.68
2023-01-13T17:19:22.563Z,81.04
2023-01-13T17:21:50.991Z,79.81
2023-01-13T17:24:17.492Z,78.70
2023-01-13T17:26:48.784Z,79.51
2023-01-13T17:29:18.432Z,79.73
2023-01-13T17:31:45.162Z,79.62
2023-01-13T17:34:12.571Z,78.21
2023-01-13T17:36:39.083Z,77.60
2023-01-13T17:39:05.792Z,76.95
2023-01-13T17:41:32.242Z,78.01
2023-01-13T17:43:58.697Z,78.47
2023-01-13T17:46:25.161Z,79.86
2023-01-13T17:48:53.534Z,81.64
2023-01-13T17:51:22.551Z,81.43
2023-01-13T17:53:49.317Z,80.77
2023-01-13T17:56:16.804Z,80.46
2023-01-13T17:58:45.268Z,81.00
2023-01-13T18:01:15.689Z,80.35
2023-01-13T18:03:42.416Z,79.66
2023-01-13T18:06:21.351Z,79.55
2023-01-13T18:08:48.440Z,78.07
2023-01-13T18:11:20.288Z,76.65
2023-01-13T18:13:55.013Z,75.14
2023-01-13T18:16:21.887Z,74.14
2023-01-13T18:18:50.947Z,74.68
2023-01-13T18:21:41.716Z,74.27
2023-01-13T18:24:32.077Z,74.68
2023-01-13T18:27:17.419Z,74.52
2023-01-13T18:29:43.955Z,74.53
2023-01-13T18:32:10.575Z,73.96
2023-01-13T18:34:37.997Z,74.23
2023-01-13T18:37:06.284Z,75.27
2023-01-13T18:39:32.873Z,75.31
2023-01-13T18:42:18.094Z,74.85
2023-01-13T18:44:44.573Z,74.46
2023-01-13T18:47:11.026Z,74.74
2023-01-13T18:49:37.416Z,77.82
2023-01-13T18:52:04.186Z,79.29
2023-01-13T18:54:30.683Z,79.73
2023-01-13T18:56:57.341Z,79.92
2023-01-13T18:59:24.924Z,80.60
2023-01-13T19:01:51.891Z,81.18
2023-01-13T19:04:18.742Z,80.81
2023-01-13T19:06:51.678Z,81.07
2023-01-13T19:09:20.436Z,81.16
2023-01-13T19:11:46.893Z,80.04
2023-01-13T19:14:33.899Z,80.08
2023-01-13T19:17:01.503Z,79.28
2023-01-13T19:19:28.196Z,79.66
2023-01-13T19:21:56.105Z,80.32
2023-01-13T19:24:22.855Z,79.97
2023-01-13T19:26:49.238Z,80.11
2023-01-13T19:29:15.644Z,80.41
2023-01-13T19:31:42.031Z,80.38
2023-01-13T19:34:08.508Z,80.26
2023-01-13T19:36:34.944Z,80.58
2023-01-13T19:39:01.388Z,81.19
2023-01-13T19:41:46.179Z,81.19
2023-01-13T19:44:31.118Z,80.39
2023-01-13T19:46:58.231Z,80.13
2023-01-13T19:49:24.669Z,79.24
2023-01-13T19:51:51.095Z,79.54
2023-01-13T19:54:17.523Z,80.09
2023-01-13T19:56:44.057Z,80.67
2023-01-13T19:59:12.603Z,80.56
2023-01-13T20:01:40.980Z,80.61
2023-01-13T20:04:14.141Z,80.89
2023-01-13T20:06:41.116Z,81.49
2023-01-13T20:09:07.776Z,82.04
2023-01-13T20:11:34.480Z,82.14
2023-01-13T20:14:01.617Z,82.70
2023-01-13T20:16:29.453Z,83.40
2023-01-13T20:18:56.467Z,83.61
2023-01-13T20:21:23.040Z,83.87
2023-01-13T20:23:50.987Z,84.19
2023-01-13T20:26:18.203Z,83.65
2023-01-13T20:28:45.788Z,83.34
2023-01-13T20:31:13.769Z,83.18
2023-01-13T20:33:40.767Z,84.10
2023-01-13T20:36:08.350Z,84.44
2023-01-13T20:38:38.007Z,84.60
2023-01-13T20:41:25.350Z,85.42
2023-01-13T20:43:54.821Z,85.31
2023-01-13T20:46:22.727Z,85.29
2023-01-13T20:48:49.192Z,85.15
2023-01-13T20:51:15.587Z,85.04
2023-01-13T20:53:42.092Z,84.30
2023-01-13T20:56:09.368Z,84.58
2023-01-13T20:58:39.019Z,85.14
2023-01-13T21:01:05.951Z,85.42
2023-01-13T21:03:32.688Z,85.51
2023-01-13T21:05:59.146Z,85.06
2023-01-13T21:08:25.652Z,84.91
2023-01-13T21:10:52.028Z,85.80
2023-01-13T21:13:37.031Z,85.13
2023-01-13T21:16:03.672Z,84.96
2023-01-13T21:18:48.875Z,84.63
2023-01-13T21:21:15.964Z,84.79
2023-01-13T21:23:44.345Z,84.76
2023-01-13T21:26:12.066Z,84.50
2023-01-13T21:28:38.598Z,84.38
2023-01-13T21:31:06.576Z,84.41
2023-01-13T21:33:33.631Z,84.26
2023-01-13T21:36:11.635Z,83.93
2023-01-13T21:38:38.801Z,84.59
2023-01-13T21:41:07.821Z,85.15
2023-01-13T21:43:54.443Z,84.88
2023-01-13T21:46:41.825Z,84.67
2023-01-13T21:49:08.656Z,84.47
2023-01-13T21:51:35.110Z,84.79
2023-01-13T21:54:01.518Z,84.91
2023-01-13T21:56:27.939Z,84.87
2023-01-13T21:58:57.066Z,85.12
2023-01-13T22:01:23.603Z,84.68
2023-01-13T22:04:08.438Z,85.15
2023-01-13T22:06:34.849Z,85.49
2023-01-13T22:09:01.396Z,85.63
2023-01-13T22:11:28.527Z,85.56
2023-01-13T22:14:08.703Z,85.56
2023-01-13T22:16:41.866Z,85.52
2023-01-13T22:19:10.262Z,85.58
2023-01-13T22:21:37.090Z,86.02
2023-01-13T22:24:03.669Z,86.11
2023-01-13T22:26:30.202Z,86.50
2023-01-13T22:28:56.785Z,86.76
2023-01-13T22:31:24.345Z,86.93
2023-01-13T22:33:59.868Z,87.24
2023-01-13T22:36:26.482Z,87.04
2023-01-13T22:38:56.583Z,86.66
2023-01-13T22:41:23.404Z,86.58
2023-01-13T22:43:49.850Z,86.67
2023-01-13T22:46:17.050Z,86.67
2023-01-13T22:48:44.215Z,86.89
2023-01-13T22:51:12.978Z,86.94
2023-01-13T22:53:40.346Z,87.28
2023-01-13T22:56:07.362Z,87.77
2023-01-13T22:58:33.759Z,87.48
2023-01-13T23:01:08.735Z,87.77
2023-01-13T23:03:35.241Z,87.36
2023-01-13T23:06:01.736Z,87.63
2023-01-13T23:08:28.230Z,87.36
2023-01-13T23:11:00.999Z,87.30
2023-01-13T23:13:27.608Z,87.43
2023-01-13T23:15:54.024Z,87.29
2023-01-13T23:18:20.740Z,87.40
2023-01-13T23:20:47.128Z,87.59
2023-01-13T23:23:13.560Z,87.08
2023-01-13T23:25:40.013Z,87.38
2023-01-13T23:28:08.774Z,87.58
2023-01-13T23:30:35.222Z,87.47
2023-01-13T23:33:01.625Z,87.32
2023-01-13T23:35:28.047Z,87.20
2023-01-13T23:37:54.431Z,87.31
2023-01-13T23:40:20.800Z,87.25
2023-01-13T23:42:47.228Z,87.32
2023-01-13T23:45:13.692Z,87.08
2023-01-13T23:47:41.075Z,87.57
2023-01-13T23:50:07.977Z,87.93
2023-01-13T23:52:34.365Z,87.83
2023-01-13T23:55:00.868Z,87.97
2023-01-13T23:57:27.325Z,87.54
2023-01-13T23:59:53.901Z,87.76
